Time;durP1;ratioP1;P1;durP2;ratioP2;P2;SDS_P1;SDS_P2;PMS_P1;PMS_P2;Temp;Humidity;BMP_temperature;BMP_pressure;BME280_temperature;BME280_humidity;BME280_pressure;Samples;Min_cycle;Max_cycle;Signal;HPM_P1;HPM_P2
2021/10/05 00:02:23;;;;;;;12.85;7.82;;;;;;;13.38;79.87;95947.41;4977216;28;20082;-78
2021/10/05 00:04:50;;;;;;;11.38;8.45;;;;;;;13.45;79.70;95944.88;4986558;28;20051;-78
2021/10/05 00:07:17;;;;;;;11.32;7.88;;;;;;;13.45;80.02;95950.34;4986036;28;20042;-78
2021/10/05 00:09:44;;;;;;;11.43;8.43;;;;;;;13.49;79.60;95948.53;4986172;28;20084;-78
2021/10/05 00:12:10;;;;;;;10.93;7.70;;;;;;;13.51;79.30;95946.22;4986327;28;20061;-78
2021/10/05 00:14:37;;;;;;;10.45;6.65;;;;;;;13.51;79.39;95940.75;4986051;28;20057;-78
2021/10/05 00:17:04;;;;;;;8.20;6.82;;;;;;;13.56;78.91;95921.38;4986385;28;20050;-78
2021/10/05 00:19:30;;;;;;;10.18;7.40;;;;;;;13.50;78.92;95922.75;4985472;28;20501;-77
2021/10/05 00:21:57;;;;;;;9.98;6.78;;;;;;;13.44;79.18;95918.69;4985891;28;20058;-78
2021/10/05 00:24:25;;;;;;;10.02;7.03;;;;;;;13.49;79.12;95915.69;4985048;28;20119;-78
2021/10/05 00:26:51;;;;;;;8.73;7.30;;;;;;;13.48;78.96;95906.69;4986500;28;20050;-79
2021/10/05 00:29:18;;;;;;;10.63;6.95;;;;;;;13.47;79.20;95907.84;4984724;28;20054;-77
2021/10/05 00:31:44;;;;;;;12.57;6.90;;;;;;;13.44;79.25;95907.75;4986289;28;20460;-78
2021/10/05 00:34:11;;;;;;;8.73;6.78;;;;;;;13.44;79.57;95899.53;4985582;28;20520;-79
2021/10/05 00:36:37;;;;;;;8.85;7.22;;;;;;;13.46;79.58;95894.50;4986150;28;20443;-78
2021/10/05 00:39:04;;;;;;;10.90;7.68;;;;;;;13.47;79.63;95891.44;4985806;28;20058;-79
2021/10/05 00:41:33;;;;;;;10.18;7.55;;;;;;;13.46;79.70;95878.88;4986923;28;20042;-79
2021/10/05 00:44:00;;;;;;;9.70;6.55;;;;;;;13.50;79.10;95881.72;4986460;28;20080;-78
2021/10/05 00:46:27;;;;;;;9.77;6.32;;;;;;;13.52;79.21;95879.44;4985255;28;20065;-79
2021/10/05 00:48:53;;;;;;;8.95;6.32;;;;;;;13.50;79.08;95876.25;4986473;28;20046;-78
2021/10/05 00:51:21;;;;;;;8.77;7.07;;;;;;;13.51;79.61;95875.09;4984489;28;20057;-78
2021/10/05 00:53:47;;;;;;;8.90;6.70;;;;;;;13.50;79.27;95859.84;4985876;28;20421;-78
2021/10/05 00:56:14;;;;;;;11.52;6.97;;;;;;;13.47;79.69;95853.16;4985248;28;20054;-78
2021/10/05 00:58:43;;;;;;;11.48;8.23;;;;;;;13.46;79.92;95867.16;4985739;28;20046;-78
2021/10/05 01:01:10;;;;;;;10.25;7.18;;;;;;;13.47;80.26;95868.75;4985656;28;20058;-78
2021/10/05 01:03:36;;;;;;;8.80;6.45;;;;;;;13.43;80.18;95856.91;4985241;28;20050;-77
2021/10/05 01:06:03;;;;;;;9.43;6.82;;;;;;;13.38;80.55;95843.50;4985896;28;20129;-78
2021/10/05 01:08:32;;;;;;;10.40;7.05;;;;;;;13.36;80.55;95841.09;4985079;28;20061;-78
2021/10/05 01:10:58;;;;;;;10.82;6.97;;;;;;;13.23;80.80;95851.28;4986170;28;20536;-78
2021/10/05 01:13:25;;;;;;;9.25;7.25;;;;;;;13.18;81.42;95851.50;4984716;28;20270;-78
2021/10/05 01:15:52;;;;;;;10.25;7.35;;;;;;;13.07;81.88;95853.13;4986062;28;20088;-80
2021/10/05 01:18:19;;;;;;;11.10;7.50;;;;;;;12.99;82.79;95854.84;4984677;28;20050;-78
2021/10/05 01:20:54;;;;;;;9.85;7.10;;;;;;;12.93;82.96;95849.97;4985194;28;20049;-79
2021/10/05 01:23:21;;;;;;;12.55;7.47;;;;;;;12.84;83.32;95841.09;4984029;28;20054;-78
2021/10/05 01:25:48;;;;;;;11.40;8.40;;;;;;;12.82;83.60;95848.84;4985284;28;20050;-77
2021/10/05 01:28:18;;;;;;;12.20;8.20;;;;;;;12.86;83.79;95839.63;4984773;28;20050;-77
2021/10/05 01:30:45;;;;;;;9.95;7.53;;;;;;;12.89;83.97;95840.88;4984678;28;20100;-78
2021/10/05 01:33:11;;;;;;;11.27;8.40;;;;;;;12.90;84.22;95835.06;4985317;28;20050;-79
2021/10/05 01:35:38;;;;;;;11.90;8.32;;;;;;;12.93;84.23;95830.84;4984664;28;20054;-77
2021/10/05 01:38:06;;;;;;;11.05;7.50;;;;;;;12.90;83.94;95812.44;4986085;28;20054;-79
2021/10/05 01:40:32;;;;;;;11.05;7.45;;;;;;;12.90;84.02;95824.16;4988345;28;20429;-78
2021/10/05 01:42:59;;;;;;;10.98;8.13;;;;;;;12.90;83.99;95820.63;4988504;28;20046;-78
2021/10/05 01:45:25;;;;;;;12.35;7.90;;;;;;;12.92;84.04;95821.06;4988382;28;20775;-79
2021/10/05 01:47:52;;;;;;;11.25;8.02;;;;;;;12.95;83.92;95820.38;4988589;28;20083;-78
2021/10/05 01:50:19;;;;;;;20.05;11.63;;;;;;;12.97;84.00;95812.63;4985223;28;20691;-78
2021/10/05 01:52:45;;;;;;;12.15;8.52;;;;;;;12.96;83.76;95802.84;4987482;28;20050;-78
2021/10/05 01:55:13;;;;;;;10.10;7.75;;;;;;;12.96;83.90;95781.75;4988377;28;20049;-79
2021/10/05 01:57:40;;;;;;;13.25;8.80;;;;;;;13.01;83.75;95764.34;4987972;28;20042;-79
2021/10/05 02:00:08;;;;;;;14.20;7.97;;;;;;;13.01;83.48;95780.72;4988507;28;20054;-78
2021/10/05 02:02:34;;;;;;;15.15;8.35;;;;;;;12.95;83.36;95790.31;4987840;28;20050;-77
2021/10/05 02:05:01;;;;;;;14.48;8.70;;;;;;;12.94;83.48;95778.56;4988523;28;20062;-78
2021/10/05 02:07:27;;;;;;;15.60;8.00;;;;;;;12.92;83.43;95766.41;4988146;28;20057;-79
2021/10/05 02:09:54;;;;;;;14.75;8.95;;;;;;;12.94;83.31;95764.09;4988255;28;20046;-80
2021/10/05 02:12:21;;;;;;;13.55;8.18;;;;;;;12.93;83.17;95771.50;4988208;28;20096;-77
2021/10/05 02:14:48;;;;;;;11.95;8.68;;;;;;;12.91;83.63;95792.16;4987512;28;20053;-78
2021/10/05 02:17:15;;;;;;;14.52;9.02;;;;;;;12.96;83.23;95792.69;4988447;28;20061;-78
2021/10/05 02:19:42;;;;;;;10.70;8.05;;;;;;;13.06;83.08;95783.22;4987501;28;20077;-79
2021/10/05 02:22:08;;;;;;;12.38;8.32;;;;;;;13.02;82.72;95765.91;4988164;28;20054;-78
2021/10/05 02:24:42;;;;;;;13.95;8.80;;;;;;;12.99;82.93;95766.59;4987750;28;20115;-78
2021/10/05 02:27:10;;;;;;;16.52;8.73;;;;;;;12.95;82.99;95765.72;4988213;28;20137;-79
2021/10/05 02:29:38;;;;;;;15.50;8.23;;;;;;;13.00;82.72;95758.06;4988299;28;20050;-78
2021/10/05 02:32:05;;;;;;;13.60;9.25;;;;;;;12.97;82.69;95768.91;4987601;28;20057;-78
2021/10/05 02:34:32;;;;;;;12.65;8.45;;;;;;;12.92;83.04;95760.94;4988114;28;20055;-79
2021/10/05 02:36:59;;;;;;;14.43;9.40;;;;;;;12.91;83.03;95756.63;4987743;28;20050;-78
2021/10/05 02:39:25;;;;;;;11.70;7.88;;;;;;;12.95;83.32;95754.78;4987680;28;20057;-79
2021/10/05 02:41:52;;;;;;;15.63;9.05;;;;;;;12.88;83.18;95749.91;4987288;28;20061;-78
2021/10/05 02:44:18;;;;;;;12.50;8.63;;;;;;;12.91;83.29;95751.16;4987519;28;20046;-78
2021/10/05 02:46:47;;;;;;;18.50;9.05;;;;;;;12.89;83.46;95742.50;4987318;28;20532;-78
2021/10/05 02:49:14;;;;;;;14.88;9.30;;;;;;;12.89;83.56;95728.84;4987520;28;20074;-79
2021/10/05 02:51:40;;;;;;;13.73;8.93;;;;;;;12.77;84.15;95727.75;4987377;28;20043;-79
2021/10/05 02:54:07;;;;;;;13.18;9.63;;;;;;;12.72;84.30;95714.31;4986937;28;20054;-78
2021/10/05 02:56:34;;;;;;;18.42;10.10;;;;;;;12.76;84.59;95696.09;4987379;28;20050;-78
2021/10/05 02:59:01;;;;;;;17.02;9.88;;;;;;;12.71;85.02;95682.69;4987379;28;20509;-78
2021/10/05 03:01:28;;;;;;;16.20;10.15;;;;;;;12.67;85.51;95679.06;4987819;28;20516;-78
2021/10/05 03:03:55;;;;;;;17.13;10.30;;;;;;;12.70;85.62;95683.84;4986671;28;20050;-78
2021/10/05 03:06:22;;;;;;;14.73;9.57;;;;;;;12.71;85.76;95671.75;4987692;28;20107;-78
2021/10/05 03:08:52;;;;;;;22.05;10.00;;;;;;;12.68;86.08;95675.19;4986660;28;20121;-78
2021/10/05 03:11:19;;;;;;;16.02;10.43;;;;;;;12.62;86.37;95681.25;4987645;28;20096;-78
2021/10/05 03:13:45;;;;;;;15.52;10.15;;;;;;;12.60;86.46;95667.94;4986724;28;20057;-78
2021/10/05 03:16:12;;;;;;;19.55;10.75;;;;;;;12.58;86.70;95675.69;4987602;28;20054;-79
2021/10/05 03:18:41;;;;;;;15.73;9.90;;;;;;;12.59;86.71;95685.47;4987919;28;20056;-79
2021/10/05 03:21:09;;;;;;;21.42;10.20;;;;;;;12.55;86.57;95690.03;4986897;28;20057;-79
2021/10/05 03:23:35;;;;;;;16.13;10.55;;;;;;;12.52;87.24;95693.44;4987412;28;20050;-79
2021/10/05 03:26:03;;;;;;;14.90;10.32;;;;;;;12.54;87.39;95696.66;4986378;28;20058;-76
2021/10/05 03:28:30;;;;;;;18.40;10.18;;;;;;;12.55;87.13;95681.84;4987957;28;20123;-78
2021/10/05 03:30:57;;;;;;;13.73;9.50;;;;;;;12.51;87.20;95667.28;4986711;28;20046;-78
2021/10/05 03:33:23;;;;;;;14.68;10.38;;;;;;;12.43;87.22;95662.78;4977278;28;20043;-80
2021/10/05 03:35:49;;;;;;;17.80;10.60;;;;;;;12.39;87.34;95654.47;4966941;28;20050;-78
2021/10/05 03:38:17;;;;;;;18.17;11.73;;;;;;;12.42;87.58;95644.78;4966580;28;20062;-79
2021/10/05 03:40:44;;;;;;;17.17;10.93;;;;;;;12.42;87.94;95633.88;4967535;28;20057;-78
2021/10/05 03:43:10;;;;;;;18.63;11.38;;;;;;;12.37;87.96;95634.09;4966974;28;20070;-79
2021/10/05 03:45:37;;;;;;;20.05;12.07;;;;;;;12.24;88.46;95634.16;4967925;28;20053;-79
2021/10/05 03:48:04;;;;;;;19.58;12.10;;;;;;;12.24;89.11;95639.63;4966871;28;20406;-79
2021/10/05 03:50:30;;;;;;;18.88;12.35;;;;;;;12.28;89.27;95639.72;4971343;28;20046;-78
2021/10/05 03:52:56;;;;;;;19.65;12.77;;;;;;;12.34;88.91;95638.34;4986465;28;20050;-79
2021/10/05 03:55:25;;;;;;;20.80;12.13;;;;;;;12.34;88.51;95643.81;4986780;28;20590;-78
2021/10/05 03:57:51;;;;;;;17.80;11.85;;;;;;;12.32;88.32;95639.81;4986329;28;20651;-79
2021/10/05 04:00:17;;;;;;;19.58;12.90;;;;;;;12.22;88.53;95625.53;4986541;28;20455;-78
2021/10/05 04:02:44;;;;;;;18.90;12.02;;;;;;;12.19;89.07;95628.16;4985461;28;20104;-78
2021/10/05 04:05:10;;;;;;;18.80;12.52;;;;;;;12.18;89.42;95635.53;4986248;28;20143;-79
2021/10/05 04:07:37;;;;;;;18.05;12.95;;;;;;;12.28;89.02;95629.59;4986423;28;20077;-79
2021/10/05 04:10:05;;;;;;;21.80;13.00;;;;;;;12.27;88.55;95632.69;4985949;28;20592;-78
2021/10/05 04:12:33;;;;;;;20.25;12.98;;;;;;;12.23;88.80;95632.56;4986764;28;20050;-78
2021/10/05 04:14:59;;;;;;;21.23;13.18;;;;;;;12.24;88.85;95634.16;4986043;28;20043;-79
2021/10/05 04:17:26;;;;;;;21.77;13.40;;;;;;;12.25;88.88;95643.94;4985916;28;20096;-79
2021/10/05 04:19:52;;;;;;;21.65;13.95;;;;;;;12.32;88.42;95645.28;4985849;28;20058;-79
2021/10/05 04:22:19;;;;;;;22.55;14.00;;;;;;;12.31;88.52;95646.41;4986435;28;20042;-80
2021/10/05 04:24:45;;;;;;;20.15;13.50;;;;;;;12.32;88.09;95651.56;4985811;28;20049;-80
2021/10/05 04:27:12;;;;;;;26.85;14.43;;;;;;;12.35;87.84;95655.50;4986179;28;20059;-80
2021/10/05 04:29:42;;;;;;;20.88;13.63;;;;;;;12.35;87.76;95660.97;4985900;28;20058;-80
2021/10/05 04:32:09;;;;;;;21.17;13.73;;;;;;;12.33;87.26;95661.31;4985639;28;20458;-81
2021/10/05 04:34:36;;;;;;;23.02;13.02;;;;;;;12.33;87.33;95653.13;4986076;28;20136;-80
2021/10/05 04:37:03;;;;;;;22.83;14.43;;;;;;;12.26;87.38;95650.97;4985731;28;20054;-80
2021/10/05 04:39:29;;;;;;;27.45;16.15;;;;;;;12.24;87.76;95644.28;4986503;28;20050;-80
2021/10/05 04:41:56;;;;;;;24.15;14.68;;;;;;;12.28;88.29;95650.66;4985597;28;20054;-76
2021/10/05 04:44:22;;;;;;;22.38;14.38;;;;;;;12.34;87.39;95659.38;4985950;28;20065;-80
2021/10/05 04:46:50;;;;;;;22.00;14.65;;;;;;;12.35;87.77;95663.69;4985829;28;20500;-80
2021/10/05 04:49:17;;;;;;;22.65;14.75;;;;;;;12.32;87.78;95662.47;4985854;28;20050;-79
2021/10/05 04:51:43;;;;;;;23.80;14.88;;;;;;;12.36;87.93;95668.00;4985486;28;20094;-80
2021/10/05 04:54:10;;;;;;;21.08;14.68;;;;;;;12.31;87.95;95671.78;4985645;28;20061;-80
2021/10/05 04:56:36;;;;;;;24.75;14.98;;;;;;;12.24;88.00;95683.28;4985872;28;20054;-80
2021/10/05 04:59:03;;;;;;;22.30;15.30;;;;;;;12.23;88.03;95681.72;4985334;28;20053;-79
2021/10/05 05:01:29;;;;;;;21.75;15.00;;;;;;;12.18;88.06;95679.22;4986049;28;20047;-80
2021/10/05 05:03:57;;;;;;;23.85;15.77;;;;;;;12.19;88.65;95680.81;4985086;28;20065;-80
2021/10/05 05:06:24;;;;;;;24.58;14.65;;;;;;;12.14;88.76;95672.84;4986085;28;20100;-79
2021/10/05 05:08:50;;;;;;;25.38;16.08;;;;;;;12.09;88.77;95675.03;4985191;28;20061;-79
2021/10/05 05:11:17;;;;;;;22.95;15.07;;;;;;;12.07;88.90;95667.19;4985628;28;20046;-75
2021/10/05 05:13:43;;;;;;;26.30;16.33;;;;;;;12.08;89.25;95657.06;4983844;28;20046;-75
2021/10/05 05:16:09;;;;;;;24.80;15.48;;;;;;;12.05;89.35;95644.88;4985429;28;20077;-77
2021/10/05 05:18:37;;;;;;;27.08;15.88;;;;;;;12.07;89.64;95626.25;4985278;28;20054;-77
2021/10/05 05:21:05;;;;;;;24.10;15.95;;;;;;;12.05;89.46;95625.78;4984546;28;20046;-77
2021/10/05 05:23:31;;;;;;;25.05;16.48;;;;;;;11.98;89.84;95622.84;4985202;28;20054;-77
2021/10/05 05:25:57;;;;;;;28.75;16.70;;;;;;;11.99;90.04;95624.44;4985186;28;20058;-77
2021/10/05 05:28:24;;;;;;;26.67;17.02;;;;;;;12.05;90.55;95631.25;4985310;28;20061;-77
2021/10/05 05:30:50;;;;;;;30.02;17.13;;;;;;;12.07;90.20;95622.75;4984856;28;20066;-77
2021/10/05 05:33:17;;;;;;;31.25;17.30;;;;;;;12.12;90.24;95620.56;4985298;28;20054;-76
2021/10/05 05:35:43;;;;;;;31.35;17.88;;;;;;;12.11;90.04;95624.44;4984843;28;20050;-77
2021/10/05 05:38:11;;;;;;;27.95;17.65;;;;;;;12.15;89.47;95655.31;4985399;28;20054;-77
2021/10/05 05:40:38;;;;;;;28.77;17.80;;;;;;;12.13;89.25;95665.81;4984870;28;20049;-78
2021/10/05 05:43:04;;;;;;;27.15;16.85;;;;;;;12.13;89.41;95665.81;4984846;28;20073;-77
2021/10/05 05:45:33;;;;;;;27.38;16.35;;;;;;;12.14;89.62;95664.66;4985209;28;20144;-77
2021/10/05 05:47:59;;;;;;;28.55;16.73;;;;;;;12.17;89.63;95672.19;4985008;28;20050;-77
2021/10/05 05:50:26;;;;;;;24.98;15.93;;;;;;;12.14;89.22;95678.31;4984740;28;20532;-77
2021/10/05 05:52:52;;;;;;;25.83;16.27;;;;;;;12.06;89.55;95681.97;4984431;28;20061;-78
2021/10/05 05:55:20;;;;;;;27.92;16.35;;;;;;;12.01;89.77;95682.22;4985025;28;20051;-77
2021/10/05 05:57:49;;;;;;;24.25;15.40;;;;;;;11.99;90.00;95671.63;4984456;28;20050;-77
2021/10/05 06:00:16;;;;;;;22.60;14.88;;;;;;;12.01;90.16;95684.94;4985196;28;20046;-77
2021/10/05 06:02:42;;;;;;;28.40;16.80;;;;;;;11.96;90.24;95685.19;4984574;28;20053;-78
2021/10/05 06:05:09;;;;;;;28.83;16.50;;;;;;;11.98;90.38;95678.22;4984777;28;20058;-78
2021/10/05 06:07:36;;;;;;;26.58;15.60;;;;;;;11.91;90.19;95679.94;4984786;28;20050;-78
2021/10/05 06:10:03;;;;;;;28.80;15.65;;;;;;;11.94;90.59;95690.16;4984393;28;20050;-76
2021/10/05 06:12:37;;;;;;;27.23;15.57;;;;;;;11.94;90.78;95690.16;4985147;28;20046;-77
2021/10/05 06:15:05;;;;;;;28.60;16.52;;;;;;;11.96;90.70;95688.69;4984044;28;20128;-77
2021/10/05 06:17:32;;;;;;;26.50;15.38;;;;;;;11.92;90.54;95682.31;4985582;28;20054;-77
2021/10/05 06:19:58;;;;;;;24.65;14.10;;;;;;;11.86;90.74;95677.44;4984065;28;20079;-77
2021/10/05 06:22:24;;;;;;;28.52;15.20;;;;;;;11.88;90.86;95675.97;4984570;28;20054;-76
2021/10/05 06:24:51;;;;;;;28.92;15.98;;;;;;;11.85;90.85;95684.03;4986202;28;20061;-77
2021/10/05 06:27:18;;;;;;;28.70;15.13;;;;;;;11.88;90.95;95686.06;4987975;28;20061;-76
2021/10/05 06:29:46;;;;;;;29.85;14.95;;;;;;;11.92;90.82;95681.53;4987942;28;20048;-76
2021/10/05 06:32:12;;;;;;;27.08;15.00;;;;;;;11.93;90.42;95677.66;4987297;28;20069;-76
2021/10/05 06:34:39;;;;;;;28.02;14.98;;;;;;;11.89;90.38;95674.81;4988100;28;20049;-76
2021/10/05 06:37:05;;;;;;;25.38;14.38;;;;;;;11.93;90.56;95683.13;4987375;28;20058;-77
2021/10/05 06:39:32;;;;;;;27.35;13.65;;;;;;;11.94;90.41;95684.69;4988370;28;20054;-78
2021/10/05 06:41:58;;;;;;;24.48;12.95;;;;;;;11.88;90.18;95702.44;4987429;28;20062;-78
2021/10/05 06:44:25;;;;;;;28.48;13.88;;;;;;;11.81;90.12;95697.53;4987774;28;20054;-76
2021/10/05 06:46:53;;;;;;;23.67;13.18;;;;;;;11.82;90.83;95701.09;4987320;28;20053;-77
2021/10/05 06:49:19;;;;;;;26.90;13.45;;;;;;;11.85;90.42;95708.56;4987618;28;20061;-77
2021/10/05 06:51:46;;;;;;;25.35;14.27;;;;;;;11.87;90.64;95712.56;4985396;28;20046;-77
2021/10/05 06:54:12;;;;;;;24.80;14.38;;;;;;;11.87;90.63;95722.69;4986966;28;20062;-77
2021/10/05 06:56:39;;;;;;;23.33;13.90;;;;;;;11.90;90.76;95727.44;4987371;28;20051;-77
2021/10/05 06:59:05;;;;;;;27.23;12.57;;;;;;;11.88;90.62;95735.97;4986957;28;20057;-77
2021/10/05 07:01:31;;;;;;;26.50;12.63;;;;;;;11.90;90.57;95732.91;4987805;28;20054;-78
2021/10/05 07:04:00;;;;;;;21.58;12.05;;;;;;;11.88;90.52;95748.81;4986801;28;20508;-77
2021/10/05 07:06:26;;;;;;;22.77;11.77;;;;;;;11.87;90.77;95739.84;4987502;28;20515;-78
2021/10/05 07:08:54;;;;;;;19.88;11.15;;;;;;;11.90;90.65;95738.34;4987017;28;20098;-77
2021/10/05 07:11:21;;;;;;;19.30;10.90;;;;;;;11.89;90.06;95736.78;4987850;28;20104;-78
2021/10/05 07:13:47;;;;;;;22.15;10.45;;;;;;;11.90;89.90;95739.19;4986861;28;20053;-77
2021/10/05 07:16:14;;;;;;;18.38;10.45;;;;;;;11.93;90.15;95732.22;4987060;28;20053;-77
2021/10/05 07:18:40;;;;;;;19.63;11.05;;;;;;;11.97;89.98;95733.16;4986663;28;20046;-78
2021/10/05 07:21:08;;;;;;;19.70;10.98;;;;;;;11.98;90.13;95737.47;4986623;28;20054;-75
2021/10/05 07:23:35;;;;;;;19.10;10.35;;;;;;;12.04;90.19;95733.34;4987382;28;20159;-76
2021/10/05 07:26:02;;;;;;;21.95;11.77;;;;;;;12.08;90.34;95728.81;4986605;28;20054;-70
2021/10/05 07:28:28;;;;;;;20.95;11.95;;;;;;;12.08;90.40;95736.22;4987386;28;20099;-77
2021/10/05 07:30:55;;;;;;;24.15;12.07;;;;;;;12.13;89.81;95731.31;4986584;28;20059;-77
2021/10/05 07:33:23;;;;;;;18.08;10.27;;;;;;;12.21;89.45;95724.91;4986959;28;22570;-77
2021/10/05 07:35:50;;;;;;;18.17;10.30;;;;;;;12.25;88.86;95728.56;4986873;28;20047;-77
2021/10/05 07:38:18;;;;;;;18.98;10.73;;;;;;;12.30;88.51;95729.47;4986855;28;20053;-78
2021/10/05 07:40:44;;;;;;;21.13;10.82;;;;;;;12.30;88.35;95726.72;4986867;28;20050;-77
2021/10/05 07:43:11;;;;;;;25.55;11.57;;;;;;;12.38;88.52;95731.28;4986929;28;20053;-77
2021/10/05 07:45:38;;;;;;;22.33;10.48;;;;;;;12.42;88.34;95737.63;4987174;28;20050;-76
2021/10/05 07:48:05;;;;;;;20.25;12.05;;;;;;;12.49;88.52;95735.13;4986241;28;20107;-77
2021/10/05 07:50:33;;;;;;;22.55;11.38;;;;;;;12.60;89.14;95732.69;4987339;28;20054;-77
2021/10/05 07:53:00;;;;;;;20.52;11.77;;;;;;;12.70;88.40;95726.75;4986179;28;20517;-78
2021/10/05 07:55:30;;;;;;;24.33;12.50;;;;;;;12.72;87.08;95725.25;4986654;28;20049;-77
2021/10/05 07:57:57;;;;;;;23.40;11.95;;;;;;;12.77;87.61;95721.47;4986011;28;20050;-77
2021/10/05 08:00:24;;;;;;;21.83;12.13;;;;;;;12.76;86.72;95726.16;4986686;28;20108;-77
2021/10/05 08:02:50;;;;;;;24.40;12.25;;;;;;;12.71;86.11;95726.41;4986174;28;20054;-77
2021/10/05 08:05:17;;;;;;;25.15;11.32;;;;;;;12.73;86.54;95726.84;4986435;28;20050;-77
2021/10/05 08:07:44;;;;;;;24.08;11.70;;;;;;;12.77;86.50;95726.94;4986111;28;20092;-76
2021/10/05 08:10:12;;;;;;;20.48;10.40;;;;;;;12.70;86.15;95715.81;4985786;28;20051;-76
2021/10/05 08:12:40;;;;;;;17.60;10.98;;;;;;;12.68;86.23;95712.63;4986486;28;20051;-76
2021/10/05 08:15:07;;;;;;;21.23;10.40;;;;;;;12.70;86.48;95713.09;4985056;28;20569;-77
2021/10/05 08:17:34;;;;;;;24.17;11.15;;;;;;;12.73;86.56;95698.72;4986955;28;20054;-76
2021/10/05 08:20:02;;;;;;;18.77;10.23;;;;;;;12.79;86.32;95708.28;4985876;28;20057;-76
2021/10/05 08:22:28;;;;;;;17.27;9.38;;;;;;;12.83;86.49;95713.84;4986362;28;20057;-76
2021/10/05 08:24:55;;;;;;;17.35;9.60;;;;;;;12.91;85.76;95715.63;4985644;28;20057;-76
2021/10/05 08:27:21;;;;;;;13.95;8.45;;;;;;;12.93;85.28;95713.34;4985979;28;20889;-76
2021/10/05 08:29:52;;;;;;;13.95;8.25;;;;;;;12.94;85.58;95709.47;4986301;28;20056;-75
2021/10/05 08:32:18;;;;;;;14.60;7.72;;;;;;;12.99;84.71;95722.88;4985621;28;20061;-76
2021/10/05 08:34:44;;;;;;;13.18;8.18;;;;;;;12.99;84.44;95733.81;4986140;28;20038;-76
2021/10/05 08:37:11;;;;;;;13.40;7.57;;;;;;;12.94;84.30;95739.50;4985367;28;20050;-76
2021/10/05 08:39:38;;;;;;;12.73;7.57;;;;;;;12.92;84.35;95739.06;4986250;28;20050;-76
2021/10/05 08:42:04;;;;;;;12.75;7.97;;;;;;;12.94;84.31;95750.44;4985288;28;20059;-76
2021/10/05 08:44:31;;;;;;;16.08;9.23;;;;;;;12.93;84.71;95746.13;4986334;28;20409;-75
2021/10/05 08:46:59;;;;;;;17.00;8.45;;;;;;;12.95;85.01;95755.59;4985552;28;20080;-76
2021/10/05 08:49:27;;;;;;;14.23;8.15;;;;;;;12.97;84.55;95753.28;4985699;28;20076;-75
2021/10/05 08:51:55;;;;;;;16.25;9.00;;;;;;;12.99;84.57;95755.66;4985708;28;20203;-76
2021/10/05 08:54:22;;;;;;;13.75;8.27;;;;;;;12.99;84.92;95752.94;4985714;28;20050;-78
2021/10/05 08:56:48;;;;;;;13.27;7.25;;;;;;;12.97;84.58;95752.50;4985808;28;20512;-76
2021/10/05 08:59:16;;;;;;;17.38;8.52;;;;;;;13.00;84.67;95746.34;4984617;28;20413;-75
2021/10/05 09:01:43;;;;;;;16.23;8.80;;;;;;;13.05;85.45;95749.63;4986156;28;20532;-77
2021/10/05 09:04:11;;;;;;;14.95;8.57;;;;;;;13.05;83.60;95735.16;4984518;28;20069;-77
2021/10/05 09:06:38;;;;;;;14.32;7.65;;;;;;;13.11;84.56;95736.50;4986200;28;20065;-77
2021/10/05 09:09:06;;;;;;;16.33;7.68;;;;;;;13.15;84.84;95726.44;4973746;28;20134;-77
2021/10/05 09:11:41;;;;;;;16.65;7.68;;;;;;;13.15;84.62;95725.63;4966702;28;20054;-76
2021/10/05 09:14:08;;;;;;;14.68;7.78;;;;;;;13.23;84.26;95719.25;4965446;28;20055;-75
2021/10/05 09:16:35;;;;;;;14.52;7.50;;;;;;;13.22;83.38;95713.00;4966077;28;20060;-75
2021/10/05 09:19:03;;;;;;;13.48;7.78;;;;;;;13.20;84.34;95719.91;4965487;28;20572;-71
2021/10/05 09:21:34;;;;;;;14.85;7.72;;;;;;;13.20;84.03;95717.97;4977048;28;20054;-76
2021/10/05 09:24:02;;;;;;;17.67;7.45;;;;;;;13.18;85.04;95731.22;4985636;28;20050;-76
2021/10/05 09:26:38;;;;;;;10.45;7.00;;;;;;;13.09;84.84;95732.50;4984877;28;20046;-76
2021/10/05 09:29:16;;;;;;;12.82;7.50;;;;;;;13.04;85.27;95744.47;4985276;28;20383;-76
2021/10/05 09:32:04;;;;;;;12.77;7.20;;;;;;;13.13;85.89;95753.34;4985214;28;20529;-76
2021/10/05 09:34:40;;;;;;;12.32;6.45;;;;;;;13.06;84.39;95751.22;4985289;28;20054;-77
2021/10/05 09:37:10;;;;;;;11.45;6.90;;;;;;;13.02;84.64;95750.31;4985262;28;20054;-75
2021/10/05 09:39:42;;;;;;;10.88;6.90;;;;;;;12.95;84.76;95754.78;4984950;28;20057;-76
2021/10/05 09:42:10;;;;;;;14.43;7.80;;;;;;;12.95;85.75;95752.84;4985313;28;20537;-76
2021/10/05 09:44:36;;;;;;;14.10;7.35;;;;;;;12.94;85.47;95753.19;4984775;28;20046;-76
2021/10/05 09:47:03;;;;;;;13.02;7.18;;;;;;;12.89;86.34;95753.44;4985289;28;20057;-76
2021/10/05 09:49:40;;;;;;;11.65;6.88;;;;;;;12.93;86.81;95736.00;4984975;28;20042;-76
2021/10/05 09:52:11;;;;;;;11.90;6.60;;;;;;;13.02;87.20;95733.13;4984501;28;20493;-75
2021/10/05 09:54:38;;;;;;;12.15;6.70;;;;;;;13.13;87.14;95745.13;4985135;28;20743;-76
2021/10/05 09:57:05;;;;;;;11.88;6.70;;;;;;;13.18;87.34;95742.16;4984191;28;20050;-77
2021/10/05 09:59:32;;;;;;;11.85;6.88;;;;;;;13.29;87.21;95729.59;4986964;28;20050;-76
2021/10/05 10:01:59;;;;;;;11.30;6.68;;;;;;;13.30;87.15;95728.44;4988004;28;20050;-76
2021/10/05 10:04:26;;;;;;;11.50;6.88;;;;;;;13.36;86.72;95739.91;4988875;28;20054;-75
2021/10/05 10:06:53;;;;;;;12.43;6.65;;;;;;;13.40;86.81;95735.34;4987947;28;20061;-76
2021/10/05 10:09:21;;;;;;;10.40;6.55;;;;;;;13.60;85.86;95738.19;4988412;28;20054;-76
2021/10/05 10:11:48;;;;;;;11.65;6.78;;;;;;;13.70;83.95;95732.97;4987957;28;20057;-76
2021/10/05 10:14:19;;;;;;;10.77;7.13;;;;;;;13.81;83.84;95731.28;4988151;28;20063;-76
2021/10/05 10:16:47;;;;;;;12.93;7.60;;;;;;;13.87;82.28;95733.75;4988187;28;20066;-76
2021/10/05 10:19:25;;;;;;;11.80;6.18;;;;;;;13.93;82.69;95730.41;4987842;28;20051;-76
2021/10/05 10:21:52;;;;;;;11.73;6.65;;;;;;;13.88;83.25;95730.66;4988356;28;20137;-76
2021/10/05 10:24:19;;;;;;;11.75;6.53;;;;;;;13.76;83.10;95717.88;4987091;28;20447;-76
2021/10/05 10:26:55;;;;;;;8.90;6.40;;;;;;;13.74;83.44;95714.72;4988387;28;20091;-76
2021/10/05 10:29:28;;;;;;;10.27;6.53;;;;;;;13.83;82.76;95712.59;4987352;28;20433;-77
2021/10/05 10:31:55;;;;;;;13.85;7.00;;;;;;;13.81;82.91;95701.19;4988128;28;20053;-76
2021/10/05 10:34:23;;;;;;;10.98;6.05;;;;;;;13.94;83.61;95701.09;4987269;28;20418;-77
2021/10/05 10:36:50;;;;;;;8.73;5.57;;;;;;;14.15;83.75;95706.25;4988038;28;20614;-76
2021/10/05 10:39:19;;;;;;;11.25;6.18;;;;;;;14.47;83.45;95713.28;4987642;28;20047;-76
2021/10/05 10:41:59;;;;;;;10.57;6.05;;;;;;;14.68;81.63;95723.13;4987514;28;20141;-76
2021/10/05 10:44:28;;;;;;;7.82;5.10;;;;;;;14.85;79.52;95714.47;4987964;28;20061;-75
2021/10/05 10:47:06;;;;;;;10.65;5.40;;;;;;;14.90;77.93;95714.19;4987124;28;20054;-77
2021/10/05 10:49:32;;;;;;;7.80;4.55;;;;;;;14.94;77.62;95725.22;4988177;28;20494;-75
2021/10/05 10:51:59;;;;;;;10.05;5.38;;;;;;;14.96;76.77;95722.91;4985496;28;20046;-75
2021/10/05 10:54:26;;;;;;;9.55;5.65;;;;;;;14.91;76.92;95721.25;4987237;28;20073;-76
2021/10/05 10:57:00;;;;;;;7.63;4.68;;;;;;;14.98;78.28;95717.84;4987599;28;20133;-76
2021/10/05 10:59:29;;;;;;;11.68;5.35;;;;;;;15.02;75.58;95726.94;4987204;28;20073;-75
2021/10/05 11:02:00;;;;;;;9.40;4.78;;;;;;;15.09;76.21;95732.59;4988174;28;20054;-76
2021/10/05 11:04:26;;;;;;;8.02;4.82;;;;;;;15.06;74.56;95747.00;4986719;28;20074;-76
2021/10/05 11:06:56;;;;;;;8.32;5.03;;;;;;;14.99;74.42;95747.66;4988483;28;20074;-77
2021/10/05 11:09:29;;;;;;;6.47;4.00;;;;;;;14.94;74.70;95747.16;4986489;28;20528;-76
2021/10/05 11:11:58;;;;;;;9.90;6.32;;;;;;;14.88;76.71;95750.19;4986593;28;20070;-77
2021/10/05 11:14:28;;;;;;;10.20;6.50;;;;;;;14.78;76.88;95758.19;4986720;28;20497;-76
2021/10/05 11:16:56;;;;;;;7.80;4.70;;;;;;;14.88;76.50;95754.88;4987040;28;20141;-75
2021/10/05 11:19:27;;;;;;;8.65;4.60;;;;;;;14.93;75.96;95762.00;4987017;28;20061;-76
2021/10/05 11:21:54;;;;;;;8.23;4.90;;;;;;;14.96;75.74;95750.31;4984629;28;20062;-76
2021/10/05 11:24:20;;;;;;;10.95;5.70;;;;;;;14.93;76.99;95756.50;4986826;28;20501;-75